sensor_id;sensor_type;location;lat;lon;timestamp;P1;durP1;ratioP1;P2;durP2;ratioP2
29200;SDS011;16244;51.956;12.980;2022-11-15T00:01:48;62.43;;;29.70;;
29200;SDS011;16244;51.956;12.980;2022-11-15T00:04:19;61.97;;;28.50;;
29200;SDS011;16244;51.956;12.980;2022-11-15T00:06:46;61.43;;;28.20;;
29200;SDS011;16244;51.956;12.980;2022-11-15T00:09:14;65.93;;;31.43;;
29200;SDS011;16244;51.956;12.980;2022-11-15T00:11:41;63.57;;;28.77;;
29200;SDS011;16244;51.956;12.980;2022-11-15T00:14:08;58.20;;;29.00;;
29200;SDS011;16244;51.956;12.980;2022-11-15T00:16:36;55.37;;;28.67;;
29200;SDS011;16244;51.956;12.980;2022-11-15T00:19:03;47.13;;;25.07;;
29200;SDS011;16244;51.956;12.980;2022-11-15T00:21:30;52.47;;;28.83;;
29200;SDS011;16244;51.956;12.980;2022-11-15T00:23:58;42.40;;;22.00;;
29200;SDS011;16244;51.956;12.980;2022-11-15T00:26:26;48.50;;;26.20;;
29200;SDS011;16244;51.956;12.980;2022-11-15T00:28:54;49.73;;;28.10;;
29200;SDS011;16244;51.956;12.980;2022-11-15T00:31:22;48.03;;;25.53;;
29200;SDS011;16244;51.956;12.980;2022-11-15T00:33:51;43.50;;;21.93;;
29200;SDS011;16244;51.956;12.980;2022-11-15T00:36:18;51.00;;;26.93;;
29200;SDS011;16244;51.956;12.980;2022-11-15T00:38:45;58.30;;;30.43;;
29200;SDS011;16244;51.956;12.980;2022-11-15T00:41:12;58.40;;;28.63;;
29200;SDS011;16244;51.956;12.980;2022-11-15T00:43:39;58.63;;;30.33;;
29200;SDS011;16244;51.956;12.980;2022-11-15T00:46:08;56.63;;;29.00;;
29200;SDS011;16244;51.956;12.980;2022-11-15T00:48:37;63.73;;;28.40;;
29200;SDS011;16244;51.956;12.980;2022-11-15T00:51:05;54.57;;;28.27;;
29200;SDS011;16244;51.956;12.980;2022-11-15T00:53:32;56.77;;;26.60;;
29200;SDS011;16244;51.956;12.980;2022-11-15T00:55:59;58.67;;;27.40;;
29200;SDS011;16244;51.956;12.980;2022-11-15T00:58:27;57.33;;;29.23;;
29200;SDS011;16244;51.956;12.980;2022-11-15T01:00:54;58.73;;;29.73;;
29200;SDS011;16244;51.956;12.980;2022-11-15T01:03:21;54.27;;;28.00;;
29200;SDS011;16244;51.956;12.980;2022-11-15T01:05:48;53.87;;;26.53;;
29200;SDS011;16244;51.956;12.980;2022-11-15T01:08:17;62.87;;;29.90;;
29200;SDS011;16244;51.956;12.980;2022-11-15T01:10:44;53.00;;;28.97;;
29200;SDS011;16244;51.956;12.980;2022-11-15T01:13:12;61.53;;;28.20;;
29200;SDS011;16244;51.956;12.980;2022-11-15T01:15:40;43.93;;;24.67;;
29200;SDS011;16244;51.956;12.980;2022-11-15T01:18:07;52.20;;;27.40;;
29200;SDS011;16244;51.956;12.980;2022-11-15T01:20:38;49.87;;;25.83;;
29200;SDS011;16244;51.956;12.980;2022-11-15T01:23:06;45.30;;;23.17;;
29200;SDS011;16244;51.956;12.980;2022-11-15T01:25:34;46.67;;;25.50;;
29200;SDS011;16244;51.956;12.980;2022-11-15T01:28:01;46.20;;;25.00;;
29200;SDS011;16244;51.956;12.980;2022-11-15T01:30:29;47.37;;;25.63;;
29200;SDS011;16244;51.956;12.980;2022-11-15T01:32:56;38.73;;;20.80;;
29200;SDS011;16244;51.956;12.980;2022-11-15T01:35:23;47.53;;;24.97;;
29200;SDS011;16244;51.956;12.980;2022-11-15T01:37:50;44.40;;;23.00;;
29200;SDS011;16244;51.956;12.980;2022-11-15T01:40:17;46.87;;;24.37;;
29200;SDS011;16244;51.956;12.980;2022-11-15T01:42:45;55.40;;;25.90;;
29200;SDS011;16244;51.956;12.980;2022-11-15T01:45:13;43.77;;;21.70;;
29200;SDS011;16244;51.956;12.980;2022-11-15T01:47:42;45.33;;;24.27;;
29200;SDS011;16244;51.956;12.980;2022-11-15T01:50:14;52.70;;;26.90;;
29200;SDS011;16244;51.956;12.980;2022-11-15T01:52:44;56.50;;;27.27;;
29200;SDS011;16244;51.956;12.980;2022-11-15T01:55:13;52.60;;;25.10;;
29200;SDS011;16244;51.956;12.980;2022-11-15T01:57:47;58.33;;;26.97;;
29200;SDS011;16244;51.956;12.980;2022-11-15T02:00:19;61.83;;;29.40;;
29200;SDS011;16244;51.956;12.980;2022-11-15T02:02:46;64.00;;;30.40;;
29200;SDS011;16244;51.956;12.980;2022-11-15T02:05:13;59.73;;;28.03;;
29200;SDS011;16244;51.956;12.980;2022-11-15T02:07:41;67.00;;;28.93;;
29200;SDS011;16244;51.956;12.980;2022-11-15T02:10:10;67.33;;;29.10;;
29200;SDS011;16244;51.956;12.980;2022-11-15T02:12:38;61.20;;;27.73;;
29200;SDS011;16244;51.956;12.980;2022-11-15T02:15:08;56.50;;;26.60;;
29200;SDS011;16244;51.956;12.980;2022-11-15T02:17:45;56.40;;;24.07;;
29200;SDS011;16244;51.956;12.980;2022-11-15T02:20:36;35.70;;;19.93;;
29200;SDS011;16244;51.956;12.980;2022-11-15T02:23:31;33.83;;;18.67;;
29200;SDS011;16244;51.956;12.980;2022-11-15T02:26:34;38.77;;;20.60;;
29200;SDS011;16244;51.956;12.980;2022-11-15T02:29:27;36.17;;;19.20;;
29200;SDS011;16244;51.956;12.980;2022-11-15T02:32:07;47.80;;;24.17;;
29200;SDS011;16244;51.956;12.980;2022-11-15T02:34:43;61.77;;;25.80;;
29200;SDS011;16244;51.956;12.980;2022-11-15T02:37:19;61.80;;;29.07;;
29200;SDS011;16244;51.956;12.980;2022-11-15T02:39:54;66.37;;;30.13;;
29200;SDS011;16244;51.956;12.980;2022-11-15T02:42:32;66.70;;;30.00;;
29200;SDS011;16244;51.956;12.980;2022-11-15T02:45:21;64.00;;;27.87;;
29200;SDS011;16244;51.956;12.980;2022-11-15T02:47:54;69.57;;;29.40;;
29200;SDS011;16244;51.956;12.980;2022-11-15T02:50:24;66.27;;;26.83;;
29200;SDS011;16244;51.956;12.980;2022-11-15T02:52:54;57.73;;;27.97;;
29200;SDS011;16244;51.956;12.980;2022-11-15T02:55:25;57.30;;;25.07;;
29200;SDS011;16244;51.956;12.980;2022-11-15T02:57:56;45.83;;;23.57;;
29200;SDS011;16244;51.956;12.980;2022-11-15T03:00:32;49.27;;;25.00;;
29200;SDS011;16244;51.956;12.980;2022-11-15T03:06:02;46.23;;;22.93;;
29200;SDS011;16244;51.956;12.980;2022-11-15T03:08:40;58.77;;;26.77;;
29200;SDS011;16244;51.956;12.980;2022-11-15T03:11:17;45.23;;;22.57;;
29200;SDS011;16244;51.956;12.980;2022-11-15T03:13:48;44.80;;;22.80;;
29200;SDS011;16244;51.956;12.980;2022-11-15T03:16:24;44.43;;;23.13;;
29200;SDS011;16244;51.956;12.980;2022-11-15T03:19:00;41.40;;;23.33;;
29200;SDS011;16244;51.956;12.980;2022-11-15T03:21:31;43.17;;;21.57;;
29200;SDS011;16244;51.956;12.980;2022-11-15T03:24:01;51.27;;;24.10;;
29200;SDS011;16244;51.956;12.980;2022-11-15T03:26:30;46.80;;;23.17;;
29200;SDS011;16244;51.956;12.980;2022-11-15T03:29:01;40.80;;;21.23;;
29200;SDS011;16244;51.956;12.980;2022-11-15T03:31:32;44.87;;;22.50;;
29200;SDS011;16244;51.956;12.980;2022-11-15T03:34:24;60.23;;;26.37;;
29200;SDS011;16244;51.956;12.980;2022-11-15T03:36:54;60.57;;;26.97;;
29200;SDS011;16244;51.956;12.980;2022-11-15T03:39:21;52.47;;;26.37;;
29200;SDS011;16244;51.956;12.980;2022-11-15T03:41:50;64.17;;;27.77;;
29200;SDS011;16244;51.956;12.980;2022-11-15T03:44:32;63.53;;;27.13;;
29200;SDS011;16244;51.956;12.980;2022-11-15T03:47:07;73.50;;;29.67;;
29200;SDS011;16244;51.956;12.980;2022-11-15T03:49:40;63.27;;;29.80;;
29200;SDS011;16244;51.956;12.980;2022-11-15T03:52:10;70.53;;;29.53;;
29200;SDS011;16244;51.956;12.980;2022-11-15T03:54:47;74.90;;;31.23;;
29200;SDS011;16244;51.956;12.980;2022-11-15T03:57:15;68.57;;;28.73;;
29200;SDS011;16244;51.956;12.980;2022-11-15T03:59:42;69.10;;;30.57;;
29200;SDS011;16244;51.956;12.980;2022-11-15T04:02:09;71.27;;;30.33;;
29200;SDS011;16244;51.956;12.980;2022-11-15T04:04:37;73.47;;;30.77;;
29200;SDS011;16244;51.956;12.980;2022-11-15T04:07:05;58.30;;;25.80;;
29200;SDS011;16244;51.956;12.980;2022-11-15T04:09:32;63.77;;;29.27;;
29200;SDS011;16244;51.956;12.980;2022-11-15T04:12:19;74.47;;;32.50;;
29200;SDS011;16244;51.956;12.980;2022-11-15T04:14:56;66.40;;;30.40;;
29200;SDS011;16244;51.956;12.980;2022-11-15T04:17:36;65.77;;;30.53;;
29200;SDS011;16244;51.956;12.980;2022-11-15T04:20:07;68.80;;;29.87;;
29200;SDS011;16244;51.956;12.980;2022-11-15T04:22:55;73.30;;;34.20;;
29200;SDS011;16244;51.956;12.980;2022-11-15T04:25:41;72.23;;;30.10;;
29200;SDS011;16244;51.956;12.980;2022-11-15T04:28:09;65.47;;;28.40;;
29200;SDS011;16244;51.956;12.980;2022-11-15T04:30:36;65.93;;;29.70;;
29200;SDS011;16244;51.956;12.980;2022-11-15T04:33:04;70.60;;;32.23;;
29200;SDS011;16244;51.956;12.980;2022-11-15T04:35:31;65.80;;;29.77;;
29200;SDS011;16244;51.956;12.980;2022-11-15T04:38:03;78.07;;;30.30;;
29200;SDS011;16244;51.956;12.980;2022-11-15T04:40:30;63.70;;;28.73;;
29200;SDS011;16244;51.956;12.980;2022-11-15T04:42:57;68.40;;;29.53;;
29200;SDS011;16244;51.956;12.980;2022-11-15T04:45:24;69.60;;;28.63;;
29200;SDS011;16244;51.956;12.980;2022-11-15T04:47:51;67.07;;;27.90;;
29200;SDS011;16244;51.956;12.980;2022-11-15T04:50:18;69.97;;;30.40;;
29200;SDS011;16244;51.956;12.980;2022-11-15T04:52:50;67.97;;;30.03;;
29200;SDS011;16244;51.956;12.980;2022-11-15T04:55:19;72.43;;;29.97;;
29200;SDS011;16244;51.956;12.980;2022-11-15T04:57:46;72.63;;;28.70;;
29200;SDS011;16244;51.956;12.980;2022-11-15T05:00:14;86.93;;;33.13;;
29200;SDS011;16244;51.956;12.980;2022-11-15T05:02:43;81.60;;;31.80;;
29200;SDS011;16244;51.956;12.980;2022-11-15T05:05:27;81.07;;;32.50;;
29200;SDS011;16244;51.956;12.980;2022-11-15T05:07:55;85.90;;;32.00;;
29200;SDS011;16244;51.956;12.980;2022-11-15T05:10:23;87.37;;;32.90;;
29200;SDS011;16244;51.956;12.980;2022-11-15T05:12:50;81.07;;;32.67;;
29200;SDS011;16244;51.956;12.980;2022-11-15T05:15:17;80.17;;;30.90;;
29200;SDS011;16244;51.956;12.980;2022-11-15T05:17:44;69.53;;;29.10;;
29200;SDS011;16244;51.956;12.980;2022-11-15T05:20:12;80.43;;;33.20;;
29200;SDS011;16244;51.956;12.980;2022-11-15T05:22:39;81.70;;;32.43;;
29200;SDS011;16244;51.956;12.980;2022-11-15T05:25:07;77.97;;;31.47;;
29200;SDS011;16244;51.956;12.980;2022-11-15T05:27:35;72.50;;;31.17;;
29200;SDS011;16244;51.956;12.980;2022-11-15T05:30:03;76.67;;;30.27;;
29200;SDS011;16244;51.956;12.980;2022-11-15T05:32:30;77.83;;;29.00;;
29200;SDS011;16244;51.956;12.980;2022-11-15T05:34:57;71.33;;;29.23;;
29200;SDS011;16244;51.956;12.980;2022-11-15T05:37:25;75.90;;;35.13;;
29200;SDS011;16244;51.956;12.980;2022-11-15T05:39:52;73.37;;;30.80;;
29200;SDS011;16244;51.956;12.980;2022-11-15T05:42:19;55.10;;;25.10;;
29200;SDS011;16244;51.956;12.980;2022-11-15T05:44:48;57.23;;;24.73;;
29200;SDS011;16244;51.956;12.980;2022-11-15T05:47:17;49.10;;;23.80;;
29200;SDS011;16244;51.956;12.980;2022-11-15T05:49:50;51.20;;;24.30;;
29200;SDS011;16244;51.956;12.980;2022-11-15T05:52:21;48.47;;;24.80;;
29200;SDS011;16244;51.956;12.980;2022-11-15T05:54:51;46.90;;;22.27;;
29200;SDS011;16244;51.956;12.980;2022-11-15T05:57:19;44.53;;;22.10;;
29200;SDS011;16244;51.956;12.980;2022-11-15T05:59:47;45.50;;;22.53;;
29200;SDS011;16244;51.956;12.980;2022-11-15T06:02:15;47.57;;;22.57;;
29200;SDS011;16244;51.956;12.980;2022-11-15T06:04:42;46.47;;;22.30;;
29200;SDS011;16244;51.956;12.980;2022-11-15T06:07:09;53.63;;;24.23;;
29200;SDS011;16244;51.956;12.980;2022-11-15T06:09:36;41.23;;;23.17;;
29200;SDS011;16244;51.956;12.980;2022-11-15T06:12:03;36.20;;;19.13;;
29200;SDS011;16244;51.956;12.980;2022-11-15T06:14:30;36.20;;;18.80;;
29200;SDS011;16244;51.956;12.980;2022-11-15T06:16:59;44.37;;;22.67;;
29200;SDS011;16244;51.956;12.980;2022-11-15T06:19:26;42.03;;;23.17;;
29200;SDS011;16244;51.956;12.980;2022-11-15T06:21:53;53.13;;;24.40;;
29200;SDS011;16244;51.956;12.980;2022-11-15T06:24:20;49.40;;;23.57;;
29200;SDS011;16244;51.956;12.980;2022-11-15T06:26:47;52.23;;;23.87;;
29200;SDS011;16244;51.956;12.980;2022-11-15T06:29:14;77.87;;;36.33;;
29200;SDS011;16244;51.956;12.980;2022-11-15T06:31:41;60.07;;;26.37;;
29200;SDS011;16244;51.956;12.980;2022-11-15T06:34:10;64.37;;;29.17;;
29200;SDS011;16244;51.956;12.980;2022-11-15T06:36:37;58.73;;;27.23;;
29200;SDS011;16244;51.956;12.980;2022-11-15T06:39:04;52.83;;;24.20;;
29200;SDS011;16244;51.956;12.980;2022-11-15T06:41:33;36.67;;;18.60;;
29200;SDS011;16244;51.956;12.980;2022-11-15T06:44:00;31.00;;;17.30;;
29200;SDS011;16244;51.956;12.980;2022-11-15T06:46:28;28.93;;;16.73;;
29200;SDS011;16244;51.956;12.980;2022-11-15T06:48:55;40.03;;;18.00;;
29200;SDS011;16244;51.956;12.980;2022-11-15T06:51:23;32.50;;;17.20;;
29200;SDS011;16244;51.956;12.980;2022-11-15T06:53:50;38.40;;;18.83;;
29200;SDS011;16244;51.956;12.980;2022-11-15T06:56:17;39.00;;;20.20;;
29200;SDS011;16244;51.956;12.980;2022-11-15T06:58:44;37.10;;;20.37;;
29200;SDS011;16244;51.956;12.980;2022-11-15T07:01:11;36.63;;;19.10;;
29200;SDS011;16244;51.956;12.980;2022-11-15T07:03:40;34.77;;;18.33;;
29200;SDS011;16244;51.956;12.980;2022-11-15T07:06:08;43.27;;;21.53;;
29200;SDS011;16244;51.956;12.980;2022-11-15T07:08:37;40.00;;;19.27;;
29200;SDS011;16244;51.956;12.980;2022-11-15T07:11:05;44.57;;;19.60;;
29200;SDS011;16244;51.956;12.980;2022-11-15T07:13:34;41.93;;;20.37;;
29200;SDS011;16244;51.956;12.980;2022-11-15T07:16:02;35.70;;;18.77;;
29200;SDS011;16244;51.956;12.980;2022-11-15T07:18:30;47.00;;;21.43;;
29200;SDS011;16244;51.956;12.980;2022-11-15T07:21:00;37.90;;;20.17;;
29200;SDS011;16244;51.956;12.980;2022-11-15T07:23:28;52.70;;;22.00;;
29200;SDS011;16244;51.956;12.980;2022-11-15T07:25:57;44.50;;;21.03;;
29200;SDS011;16244;51.956;12.980;2022-11-15T07:28:24;41.83;;;21.10;;
29200;SDS011;16244;51.956;12.980;2022-11-15T07:30:51;45.27;;;20.63;;
29200;SDS011;16244;51.956;12.980;2022-11-15T07:33:18;39.00;;;20.70;;
29200;SDS011;16244;51.956;12.980;2022-11-15T07:35:46;38.43;;;19.27;;
29200;SDS011;16244;51.956;12.980;2022-11-15T07:38:14;33.33;;;19.40;;
29200;SDS011;16244;51.956;12.980;2022-11-15T07:40:45;60.07;;;25.20;;
29200;SDS011;16244;51.956;12.980;2022-11-15T07:43:14;54.80;;;25.67;;
29200;SDS011;16244;51.956;12.980;2022-11-15T07:45:41;56.80;;;25.33;;
29200;SDS011;16244;51.956;12.980;2022-11-15T07:48:10;54.13;;;24.30;;
29200;SDS011;16244;51.956;12.980;2022-11-15T07:50:40;92.70;;;44.63;;
29200;SDS011;16244;51.956;12.980;2022-11-15T07:53:07;67.20;;;27.83;;
29200;SDS011;16244;51.956;12.980;2022-11-15T07:55:36;54.43;;;25.90;;
29200;SDS011;16244;51.956;12.980;2022-11-15T07:58:04;54.60;;;24.47;;
29200;SDS011;16244;51.956;12.980;2022-11-15T08:00:34;59.13;;;25.00;;
29200;SDS011;16244;51.956;12.980;2022-11-15T08:03:02;57.53;;;25.07;;
29200;SDS011;16244;51.956;12.980;2022-11-15T08:05:31;61.30;;;26.70;;
29200;SDS011;16244;51.956;12.980;2022-11-15T08:07:58;66.27;;;27.50;;
29200;SDS011;16244;51.956;12.980;2022-11-15T08:10:25;54.00;;;24.70;;
29200;SDS011;16244;51.956;12.980;2022-11-15T08:12:56;56.67;;;25.93;;
29200;SDS011;16244;51.956;12.980;2022-11-15T08:15:25;47.63;;;24.23;;
29200;SDS011;16244;51.956;12.980;2022-11-15T08:17:54;52.83;;;25.37;;
29200;SDS011;16244;51.956;12.980;2022-11-15T08:20:22;55.30;;;25.57;;
29200;SDS011;16244;51.956;12.980;2022-11-15T08:22:50;53.53;;;25.40;;
29200;SDS011;16244;51.956;12.980;2022-11-15T08:25:17;45.97;;;23.27;;
29200;SDS011;16244;51.956;12.980;2022-11-15T08:27:44;43.00;;;22.40;;
29200;SDS011;16244;51.956;12.980;2022-11-15T08:30:11;33.10;;;21.53;;
29200;SDS011;16244;51.956;12.980;2022-11-15T08:32:39;31.57;;;18.97;;
29200;SDS011;16244;51.956;12.980;2022-11-15T08:35:07;23.57;;;17.40;;
29200;SDS011;16244;51.956;12.980;2022-11-15T08:37:34;22.80;;;15.57;;
29200;SDS011;16244;51.956;12.980;2022-11-15T08:40:02;21.30;;;15.67;;
29200;SDS011;16244;51.956;12.980;2022-11-15T08:42:30;23.90;;;15.90;;
29200;SDS011;16244;51.956;12.980;2022-11-15T08:44:57;18.40;;;14.67;;
29200;SDS011;16244;51.956;12.980;2022-11-15T08:47:24;22.33;;;15.20;;
29200;SDS011;16244;51.956;12.980;2022-11-15T08:49:51;17.47;;;13.80;;
29200;SDS011;16244;51.956;12.980;2022-11-15T08:52:20;18.07;;;13.00;;
29200;SDS011;16244;51.956;12.980;2022-11-15T08:54:47;16.90;;;13.27;;
29200;SDS011;16244;51.956;12.980;2022-11-15T08:57:14;24.13;;;17.17;;
29200;SDS011;16244;51.956;12.980;2022-11-15T08:59:42;15.40;;;12.87;;
29200;SDS011;16244;51.956;12.980;2022-11-15T09:02:10;21.03;;;16.73;;
29200;SDS011;16244;51.956;12.980;2022-11-15T09:04:39;15.73;;;12.10;;
29200;SDS011;16244;51.956;12.980;2022-11-15T09:07:07;14.83;;;11.47;;
29200;SDS011;16244;51.956;12.980;2022-11-15T09:09:36;12.80;;;9.97;;
29200;SDS011;16244;51.956;12.980;2022-11-15T09:12:03;15.70;;;10.90;;
29200;SDS011;16244;51.956;12.980;2022-11-15T09:14:32;20.33;;;9.93;;
29200;SDS011;16244;51.956;12.980;2022-11-15T09:16:59;14.63;;;10.77;;
29200;SDS011;16244;51.956;12.980;2022-11-15T09:19:26;17.50;;;11.80;;
29200;SDS011;16244;51.956;12.980;2022-11-15T09:21:53;23.77;;;15.50;;
29200;SDS011;16244;51.956;12.980;2022-11-15T09:24:21;13.93;;;11.60;;
29200;SDS011;16244;51.956;12.980;2022-11-15T09:26:50;16.17;;;11.30;;
29200;SDS011;16244;51.956;12.980;2022-11-15T09:29:17;24.37;;;18.53;;
29200;SDS011;16244;51.956;12.980;2022-11-15T09:31:45;13.43;;;10.17;;
29200;SDS011;16244;51.956;12.980;2022-11-15T09:34:12;9.17;;;8.23;;
29200;SDS011;16244;51.956;12.980;2022-11-15T09:36:39;12.60;;;9.60;;
29200;SDS011;16244;51.956;12.980;2022-11-15T09:39:06;11.27;;;9.13;;
29200;SDS011;16244;51.956;12.980;2022-11-15T09:41:53;9.97;;;8.70;;
29200;SDS011;16244;51.956;12.980;2022-11-15T09:44:44;12.50;;;9.57;;
29200;SDS011;16244;51.956;12.980;2022-11-15T09:47:26;10.60;;;8.90;;
29200;SDS011;16244;51.956;12.980;2022-11-15T09:50:08;11.53;;;9.10;;
29200;SDS011;16244;51.956;12.980;2022-11-15T09:52:36;9.83;;;8.70;;
29200;SDS011;16244;51.956;12.980;2022-11-15T09:55:07;11.07;;;8.80;;
29200;SDS011;16244;51.956;12.980;2022-11-15T09:57:39;10.30;;;8.87;;
29200;SDS011;16244;51.956;12.980;2022-11-15T10:00:14;9.20;;;8.30;;
29200;SDS011;16244;51.956;12.980;2022-11-15T10:02:58;10.33;;;8.00;;
29200;SDS011;16244;51.956;12.980;2022-11-15T10:05:37;11.33;;;8.63;;
29200;SDS011;16244;51.956;12.980;2022-11-15T10:08:11;10.93;;;8.73;;
29200;SDS011;16244;51.956;12.980;2022-11-15T10:10:47;9.43;;;8.37;;
29200;SDS011;16244;51.956;12.980;2022-11-15T10:13:19;12.47;;;9.90;;
29200;SDS011;16244;51.956;12.980;2022-11-15T10:15:50;11.00;;;8.70;;
29200;SDS011;16244;51.956;12.980;2022-11-15T10:18:20;10.40;;;8.30;;
29200;SDS011;16244;51.956;12.980;2022-11-15T10:20:57;10.87;;;8.30;;
29200;SDS011;16244;51.956;12.980;2022-11-15T10:23:26;11.10;;;8.60;;
29200;SDS011;16244;51.956;12.980;2022-11-15T10:25:54;9.87;;;8.30;;
29200;SDS011;16244;51.956;12.980;2022-11-15T10:28:27;10.23;;;8.20;;
29200;SDS011;16244;51.956;12.980;2022-11-15T10:30:56;14.43;;;8.80;;
29200;SDS011;16244;51.956;12.980;2022-11-15T10:33:25;10.03;;;7.47;;
29200;SDS011;16244;51.956;12.980;2022-11-15T10:36:19;11.30;;;8.10;;
29200;SDS011;16244;51.956;12.980;2022-11-15T10:38:51;13.17;;;8.30;;
29200;SDS011;16244;51.956;12.980;2022-11-15T10:41:21;10.50;;;8.53;;
29200;SDS011;16244;51.956;12.980;2022-11-15T10:44:07;9.93;;;7.60;;
29200;SDS011;16244;51.956;12.980;2022-11-15T10:46:45;10.07;;;7.53;;
29200;SDS011;16244;51.956;12.980;2022-11-15T10:49:16;11.27;;;6.90;;
29200;SDS011;16244;51.956;12.980;2022-11-15T10:51:46;7.90;;;6.33;;
29200;SDS011;16244;51.956;12.980;2022-11-15T10:54:16;7.43;;;6.17;;
29200;SDS011;16244;51.956;12.980;2022-11-15T10:56:48;10.63;;;7.27;;
29200;SDS011;16244;51.956;12.980;2022-11-15T10:59:20;8.53;;;6.10;;
29200;SDS011;16244;51.956;12.980;2022-11-15T11:01:51;5.87;;;5.27;;
29200;SDS011;16244;51.956;12.980;2022-11-15T11:04:18;9.60;;;6.13;;
29200;SDS011;16244;51.956;12.980;2022-11-15T11:06:46;7.77;;;6.10;;
29200;SDS011;16244;51.956;12.980;2022-11-15T11:09:21;7.50;;;6.00;;
29200;SDS011;16244;51.956;12.980;2022-11-15T11:11:53;7.40;;;6.67;;
29200;SDS011;16244;51.956;12.980;2022-11-15T11:14:22;6.80;;;6.20;;
29200;SDS011;16244;51.956;12.980;2022-11-15T11:16:53;9.20;;;6.77;;
29200;SDS011;16244;51.956;12.980;2022-11-15T11:19:30;8.23;;;6.57;;
29200;SDS011;16244;51.956;12.980;2022-11-15T11:22:06;7.73;;;6.80;;
29200;SDS011;16244;51.956;12.980;2022-11-15T11:24:44;8.87;;;7.97;;
29200;SDS011;16244;51.956;12.980;2022-11-15T11:27:22;9.53;;;7.57;;
29200;SDS011;16244;51.956;12.980;2022-11-15T11:30:06;8.53;;;6.00;;
29200;SDS011;16244;51.956;12.980;2022-11-15T11:32:40;10.00;;;7.90;;
29200;SDS011;16244;51.956;12.980;2022-11-15T11:35:17;13.50;;;7.90;;
29200;SDS011;16244;51.956;12.980;2022-11-15T11:37:50;8.73;;;7.30;;
29200;SDS011;16244;51.956;12.980;2022-11-15T11:40:26;7.60;;;6.60;;
29200;SDS011;16244;51.956;12.980;2022-11-15T11:42:58;12.07;;;7.37;;
29200;SDS011;16244;51.956;12.980;2022-11-15T11:45:43;9.07;;;6.13;;
29200;SDS011;16244;51.956;12.980;2022-11-15T11:48:33;7.10;;;6.40;;
29200;SDS011;16244;51.956;12.980;2022-11-15T11:51:10;7.17;;;5.80;;
29200;SDS011;16244;51.956;12.980;2022-11-15T11:53:42;12.13;;;5.63;;
29200;SDS011;16244;51.956;12.980;2022-11-15T11:56:16;9.70;;;6.10;;
29200;SDS011;16244;51.956;12.980;2022-11-15T11:58:49;8.23;;;5.13;;
29200;SDS011;16244;51.956;12.980;2022-11-15T12:01:23;8.73;;;6.83;;
29200;SDS011;16244;51.956;12.980;2022-11-15T12:04:09;5.10;;;4.70;;
29200;SDS011;16244;51.956;12.980;2022-11-15T12:07:01;11.90;;;5.57;;
29200;SDS011;16244;51.956;12.980;2022-11-15T12:09:53;7.80;;;5.30;;
29200;SDS011;16244;51.956;12.980;2022-11-15T12:12:55;5.53;;;5.03;;
29200;SDS011;16244;51.956;12.980;2022-11-15T12:15:45;6.90;;;5.37;;
29200;SDS011;16244;51.956;12.980;2022-11-15T12:21:34;7.10;;;4.70;;
29200;SDS011;16244;51.956;12.980;2022-11-15T12:24:37;10.03;;;4.77;;
29200;SDS011;16244;51.956;12.980;2022-11-15T12:27:24;4.33;;;4.03;;
29200;SDS011;16244;51.956;12.980;2022-11-15T12:30:11;4.87;;;4.20;;
29200;SDS011;16244;51.956;12.980;2022-11-15T12:32:48;6.30;;;3.93;;
29200;SDS011;16244;51.956;12.980;2022-11-15T12:35:24;5.13;;;3.97;;
29200;SDS011;16244;51.956;12.980;2022-11-15T12:37:55;4.07;;;3.77;;
29200;SDS011;16244;51.956;12.980;2022-11-15T12:40:23;3.47;;;3.17;;
29200;SDS011;16244;51.956;12.980;2022-11-15T12:43:07;3.00;;;2.80;;
29200;SDS011;16244;51.956;12.980;2022-11-15T12:45:55;3.10;;;2.80;;
29200;SDS011;16244;51.956;12.980;2022-11-15T12:57:53;4.80;;;4.50;;
29200;SDS011;16244;51.956;12.980;2022-11-15T13:03:17;3.90;;;3.60;;
29200;SDS011;16244;51.956;12.980;2022-11-15T13:05:56;4.37;;;4.07;;
29200;SDS011;16244;51.956;12.980;2022-11-15T13:08:42;3.90;;;3.40;;
29200;SDS011;16244;51.956;12.980;2022-11-15T13:17:16;4.73;;;4.10;;
29200;SDS011;16244;51.956;12.980;2022-11-15T13:20:20;4.37;;;4.03;;
29200;SDS011;16244;51.956;12.980;2022-11-15T13:22:58;4.10;;;3.70;;
29200;SDS011;16244;51.956;12.980;2022-11-15T13:25:31;3.70;;;3.13;;
29200;SDS011;16244;51.956;12.980;2022-11-15T13:28:20;3.97;;;3.67;;
29200;SDS011;16244;51.956;12.980;2022-11-15T13:30:55;5.33;;;4.07;;
29200;SDS011;16244;51.956;12.980;2022-11-15T13:33:24;3.57;;;3.30;;
29200;SDS011;16244;51.956;12.980;2022-11-15T13:35:54;4.50;;;4.20;;
29200;SDS011;16244;51.956;12.980;2022-11-15T13:38:27;4.23;;;3.83;;
29200;SDS011;16244;51.956;12.980;2022-11-15T13:40:57;4.60;;;4.00;;
29200;SDS011;16244;51.956;12.980;2022-11-15T13:43:26;4.47;;;4.20;;
29200;SDS011;16244;51.956;12.980;2022-11-15T13:46:06;5.63;;;4.60;;
29200;SDS011;16244;51.956;12.980;2022-11-15T13:48:36;4.40;;;4.17;;
29200;SDS011;16244;51.956;12.980;2022-11-15T13:51:05;4.27;;;4.07;;
29200;SDS011;16244;51.956;12.980;2022-11-15T13:53:36;5.83;;;5.33;;
29200;SDS011;16244;51.956;12.980;2022-11-15T13:56:07;6.20;;;5.47;;
29200;SDS011;16244;51.956;12.980;2022-11-15T13:58:36;7.40;;;6.70;;
29200;SDS011;16244;51.956;12.980;2022-11-15T14:01:05;7.80;;;7.10;;
29200;SDS011;16244;51.956;12.980;2022-11-15T14:03:34;7.97;;;6.83;;
29200;SDS011;16244;51.956;12.980;2022-11-15T14:06:13;9.50;;;7.70;;
29200;SDS011;16244;51.956;12.980;2022-11-15T14:08:42;7.57;;;6.87;;
29200;SDS011;16244;51.956;12.980;2022-11-15T14:11:24;8.90;;;7.90;;
29200;SDS011;16244;51.956;12.980;2022-11-15T14:14:03;12.57;;;8.63;;
29200;SDS011;16244;51.956;12.980;2022-11-15T14:16:40;9.03;;;8.13;;
29200;SDS011;16244;51.956;12.980;2022-11-15T14:19:09;10.27;;;8.80;;
29200;SDS011;16244;51.956;12.980;2022-11-15T14:24:37;10.00;;;9.00;;
29200;SDS011;16244;51.956;12.980;2022-11-15T14:27:21;11.10;;;9.07;;
29200;SDS011;16244;51.956;12.980;2022-11-15T14:29:50;15.07;;;8.40;;
29200;SDS011;16244;51.956;12.980;2022-11-15T14:32:19;13.83;;;9.37;;
29200;SDS011;16244;51.956;12.980;2022-11-15T14:34:48;14.70;;;8.90;;
29200;SDS011;16244;51.956;12.980;2022-11-15T14:37:20;11.10;;;8.50;;
29200;SDS011;16244;51.956;12.980;2022-11-15T14:39:49;11.07;;;8.40;;
29200;SDS011;16244;51.956;12.980;2022-11-15T14:42:16;10.73;;;9.40;;
29200;SDS011;16244;51.956;12.980;2022-11-15T14:44:44;13.00;;;8.67;;
29200;SDS011;16244;51.956;12.980;2022-11-15T14:47:11;10.70;;;9.60;;
29200;SDS011;16244;51.956;12.980;2022-11-15T14:49:39;13.47;;;9.63;;
29200;SDS011;16244;51.956;12.980;2022-11-15T14:52:11;11.70;;;9.17;;
29200;SDS011;16244;51.956;12.980;2022-11-15T14:54:49;12.40;;;9.07;;
29200;SDS011;16244;51.956;12.980;2022-11-15T14:57:16;19.80;;;10.40;;
29200;SDS011;16244;51.956;12.980;2022-11-15T14:59:43;10.60;;;9.00;;
29200;SDS011;16244;51.956;12.980;2022-11-15T15:02:13;13.27;;;9.53;;
29200;SDS011;16244;51.956;12.980;2022-11-15T15:04:44;14.43;;;10.63;;
29200;SDS011;16244;51.956;12.980;2022-11-15T15:07:11;20.20;;;11.90;;
29200;SDS011;16244;51.956;12.980;2022-11-15T15:09:38;14.10;;;9.73;;